Time;durP1;ratioP1;P1;durP2;ratioP2;P2;SDS_P1;SDS_P2;PMS_P1;PMS_P2;Temp;Humidity;BMP_temperature;BMP_pressure;BME280_temperature;BME280_humidity;BME280_pressure;Samples;Min_cycle;Max_cycle;Signal;HPM_P1;HPM_P2
2024/03/07 00:00:53;;;;;;;29.50;13.05;;;;;;;-141.50;100.00;63355.56;4989318;28;20054;-81
2024/03/07 00:03:20;;;;;;;27.70;11.65;;;;;;;-141.50;100.00;63355.56;4997044;28;20050;-80
2024/03/07 00:05:47;;;;;;;26.75;11.90;;;;;;;-141.50;100.00;63355.56;4989118;28;20057;-77
2024/03/07 00:08:14;;;;;;;30.70;12.10;;;;;;;-141.50;100.00;63355.56;5005621;28;20058;-79
2024/03/07 00:10:41;;;;;;;26.48;11.02;;;;;;;-141.50;100.00;63355.56;5010392;28;20084;-79
2024/03/07 00:13:08;;;;;;;24.45;11.23;;;;;;;-141.50;100.00;63355.56;5011162;28;20077;-78
2024/03/07 00:15:34;;;;;;;26.35;11.27;;;;;;;-141.50;100.00;63355.56;4998644;28;20123;-80
2024/03/07 00:18:01;;;;;;;26.17;11.30;;;;;;;-141.50;100.00;63355.56;5010049;28;20065;-79
2024/03/07 00:20:28;;;;;;;25.92;11.10;;;;;;;-141.50;100.00;63355.56;5009061;28;20041;-79
2024/03/07 00:22:55;;;;;;;29.95;11.82;;;;;;;-141.50;100.00;63355.56;4992439;28;20045;-80
2024/03/07 00:25:22;;;;;;;29.77;12.18;;;;;;;-141.50;100.00;63355.56;5009237;28;20104;-80
2024/03/07 00:27:52;;;;;;;25.05;11.45;;;;;;;-141.50;100.00;63355.56;4992449;28;20052;-80
2024/03/07 00:30:19;;;;;;;31.42;11.65;;;;;;;-141.50;100.00;63355.56;5009846;28;20046;-80
2024/03/07 00:32:47;;;;;;;27.40;11.85;;;;;;;-141.50;100.00;63355.56;5010525;28;20056;-79
2024/03/07 00:35:15;;;;;;;24.17;10.85;;;;;;;-141.50;100.00;63355.56;5023337;28;20049;-78
2024/03/07 00:37:42;;;;;;;29.80;11.77;;;;;;;-141.50;100.00;63355.56;5015310;28;20058;-81
2024/03/07 00:40:10;;;;;;;24.52;10.85;;;;;;;-141.50;100.00;63355.56;4997678;28;20069;-80
2024/03/07 00:42:37;;;;;;;26.60;11.20;;;;;;;-141.50;100.00;63355.56;5010824;28;20451;-81
2024/03/07 00:45:04;;;;;;;28.08;11.25;;;;;;;-141.50;100.00;63355.56;4998380;28;20474;-79
2024/03/07 00:47:34;;;;;;;25.05;11.32;;;;;;;-141.50;100.00;63355.56;4996762;28;20058;-80
2024/03/07 00:50:01;;;;;;;24.17;10.90;;;;;;;-141.50;100.00;63355.56;5007780;28;20049;-79
2024/03/07 00:52:27;;;;;;;25.23;10.75;;;;;;;-141.50;100.00;63355.56;5010494;28;20061;-81
2024/03/07 00:54:54;;;;;;;26.98;11.38;;;;;;;-141.50;100.00;63355.56;4989799;28;20108;-79
2024/03/07 00:57:21;;;;;;;27.90;11.88;;;;;;;-141.50;100.00;63355.56;4981108;28;20512;-80
2024/03/07 00:59:48;;;;;;;24.92;11.25;;;;;;;-141.50;100.00;63355.56;4987905;28;20132;-79
2024/03/07 01:02:17;;;;;;;28.75;12.00;;;;;;;-141.50;100.00;63355.56;4984655;28;20048;-79
2024/03/07 01:04:44;;;;;;;32.42;12.48;;;;;;;-141.50;100.00;63355.56;4976368;28;20666;-78
2024/03/07 01:07:11;;;;;;;31.70;11.85;;;;;;;-141.50;100.00;63355.56;5010974;28;20037;-80
2024/03/07 01:09:38;;;;;;;27.23;12.32;;;;;;;-141.50;100.00;63355.56;5008943;28;20054;-78
2024/03/07 01:12:05;;;;;;;27.73;11.60;;;;;;;-141.50;100.00;63355.56;5010412;28;20056;-78
2024/03/07 01:14:32;;;;;;;28.35;12.45;;;;;;;-141.50;100.00;63355.56;5009724;28;20046;-78
2024/03/07 01:16:59;;;;;;;25.50;11.40;;;;;;;-141.50;100.00;63355.56;4992375;28;27631;-79
2024/03/07 01:19:26;;;;;;;29.02;11.57;;;;;;;-141.50;100.00;63355.56;4993147;28;20056;-83
2024/03/07 01:21:53;;;;;;;34.15;13.10;;;;;;;-141.50;100.00;63355.56;5012267;28;20443;-78
2024/03/07 01:24:20;;;;;;;28.73;12.27;;;;;;;-141.50;100.00;63355.56;4995882;28;20046;-81
2024/03/07 01:26:47;;;;;;;32.78;13.05;;;;;;;-141.50;100.00;63355.56;4988897;28;20547;-80
2024/03/07 01:29:15;;;;;;;29.10;12.30;;;;;;;-141.50;100.00;63355.56;5013943;28;20057;-81
2024/03/07 01:31:42;;;;;;;30.88;13.40;;;;;;;-141.50;100.00;63355.56;4994687;28;20058;-77
2024/03/07 01:34:09;;;;;;;30.92;13.13;;;;;;;-141.50;100.00;63355.56;5016510;28;20042;-78
2024/03/07 01:36:37;;;;;;;32.33;13.65;;;;;;;-141.50;100.00;63355.56;5010194;28;20120;-81
2024/03/07 01:39:04;;;;;;;34.55;13.75;;;;;;;-141.50;100.00;63355.56;4992305;28;20045;-80
2024/03/07 01:41:31;;;;;;;37.50;14.07;;;;;;;-141.50;100.00;63355.56;4988942;28;20070;-79
2024/03/07 01:43:58;;;;;;;38.05;13.98;;;;;;;-141.50;100.00;63355.56;4991439;28;20068;-78
2024/03/07 01:46:25;;;;;;;32.40;14.27;;;;;;;-141.50;100.00;63355.56;4992547;28;20080;-77
2024/03/07 01:48:52;;;;;;;33.08;13.50;;;;;;;-141.50;100.00;63355.56;4993184;28;20072;-78
2024/03/07 01:51:21;;;;;;;33.15;13.63;;;;;;;-141.50;100.00;63355.56;5011216;28;20069;-81
2024/03/07 01:53:50;;;;;;;37.22;14.38;;;;;;;-141.50;100.00;63355.56;4995981;28;20639;-81
2024/03/07 01:56:21;;;;;;;31.70;13.70;;;;;;;-141.50;100.00;63355.56;5007692;28;20042;-79
2024/03/07 01:58:53;;;;;;;30.92;13.68;;;;;;;-141.50;100.00;63355.56;4988284;28;20054;-80
2024/03/07 02:01:20;;;;;;;30.50;13.48;;;;;;;-141.50;100.00;63355.56;4980947;28;20161;-78
2024/03/07 02:03:47;;;;;;;34.67;14.07;;;;;;;-141.50;100.00;63355.56;4992013;28;20050;-81
2024/03/07 02:06:14;;;;;;;40.17;15.15;;;;;;;-141.50;100.00;63355.56;4992895;28;20104;-80
2024/03/07 02:08:41;;;;;;;40.05;14.48;;;;;;;-141.50;100.00;63355.56;4988041;28;20552;-80
2024/03/07 02:11:09;;;;;;;36.30;14.60;;;;;;;-141.50;100.00;63355.56;5006299;28;20070;-80
2024/03/07 02:13:36;;;;;;;34.15;14.65;;;;;;;-141.50;100.00;63355.56;5008696;28;20053;-79
2024/03/07 02:16:03;;;;;;;37.95;14.20;;;;;;;-141.50;100.00;63355.56;5011025;28;20038;-80
2024/03/07 02:18:30;;;;;;;35.00;14.25;;;;;;;-141.50;100.00;63355.56;5009113;28;20115;-79
2024/03/07 02:20:57;;;;;;;36.50;14.57;;;;;;;-141.50;100.00;63355.56;4991341;28;20050;-79
2024/03/07 02:23:24;;;;;;;37.22;15.30;;;;;;;-141.50;100.00;63355.56;5007133;28;20064;-79
2024/03/07 02:25:51;;;;;;;40.70;15.25;;;;;;;-141.50;100.00;63355.56;5007967;28;20058;-80
2024/03/07 02:28:18;;;;;;;36.38;15.02;;;;;;;-141.50;100.00;63355.56;4991507;28;20046;-77
2024/03/07 02:30:46;;;;;;;40.30;15.95;;;;;;;-141.50;100.00;63355.56;5018768;28;20050;-79
2024/03/07 02:33:12;;;;;;;38.50;16.45;;;;;;;-141.50;100.00;63355.56;4980362;28;20073;-80
2024/03/07 02:35:39;;;;;;;39.75;16.05;;;;;;;-141.50;100.00;63355.56;5010663;28;20496;-79
2024/03/07 02:38:06;;;;;;;35.10;15.00;;;;;;;-141.50;100.00;63355.56;4988858;28;20043;-78
2024/03/07 02:40:33;;;;;;;40.83;15.65;;;;;;;-141.50;100.00;63355.56;4989321;28;20062;-78
2024/03/07 02:43:00;;;;;;;40.58;16.17;;;;;;;-141.50;100.00;63355.56;5008887;28;20125;-79
2024/03/07 02:45:27;;;;;;;39.47;16.25;;;;;;;-141.50;100.00;63355.56;5009921;28;20045;-78
2024/03/07 02:47:53;;;;;;;47.67;17.23;;;;;;;-141.50;100.00;63355.56;4992308;28;20061;-79
2024/03/07 02:50:22;;;;;;;41.83;16.05;;;;;;;-141.50;100.00;63355.56;5015789;28;20069;-78
2024/03/07 02:52:52;;;;;;;38.63;16.10;;;;;;;-141.50;100.00;63355.56;5013716;28;20061;-78
2024/03/07 02:55:19;;;;;;;43.25;17.33;;;;;;;-141.50;100.00;63355.56;5013927;28;20516;-81
2024/03/07 02:57:46;;;;;;;41.22;15.63;;;;;;;-141.50;100.00;63355.56;4991008;28;20073;-80
2024/03/07 03:00:37;;;;;;;38.15;16.02;;;;;;;-141.50;100.00;63355.56;5003956;28;20057;-81
2024/03/07 03:03:02;;;;;;;44.30;16.88;;;;;;;-141.50;100.00;63355.56;5010637;28;20120;-82
2024/03/07 03:05:31;;;;;;;41.72;16.80;;;;;;;-141.50;100.00;63355.56;4993161;28;20064;-79
2024/03/07 03:08:00;;;;;;;41.00;15.95;;;;;;;-141.50;100.00;63355.56;5008527;28;20087;-81
2024/03/07 03:10:30;;;;;;;40.65;16.67;;;;;;;-141.50;100.00;63355.56;4992495;28;20054;-80
2024/03/07 03:13:00;;;;;;;40.15;16.80;;;;;;;-141.50;100.00;63355.56;4993695;28;20505;-81
2024/03/07 03:15:29;;;;;;;39.58;16.58;;;;;;;-141.50;100.00;63355.56;5009982;28;20064;-82
2024/03/07 03:18:00;;;;;;;42.00;17.75;;;;;;;-141.50;100.00;63355.56;4993771;28;20054;-79
2024/03/07 03:20:34;;;;;;;41.42;16.83;;;;;;;-141.50;100.00;63355.56;4991357;28;20535;-81
2024/03/07 03:23:03;;;;;;;45.78;16.77;;;;;;;-141.50;100.00;63355.56;5009762;28;20054;-80
2024/03/07 03:25:47;;;;;;;39.70;15.85;;;;;;;-141.50;100.00;63355.56;4998802;28;20054;-80
2024/03/07 03:28:14;;;;;;;46.70;16.77;;;;;;;-141.50;100.00;63355.56;5023419;28;20073;-80
2024/03/07 03:30:41;;;;;;;41.63;16.65;;;;;;;-141.50;100.00;63355.56;4994190;28;20050;-81
2024/03/07 03:33:08;;;;;;;49.72;18.35;;;;;;;-141.50;100.00;63355.56;5000581;28;20520;-81
2024/03/07 03:35:36;;;;;;;46.83;18.38;;;;;;;-141.50;100.00;63355.56;5009679;28;20069;-82
2024/03/07 03:38:03;;;;;;;39.53;16.90;;;;;;;-141.50;100.00;63355.56;5009633;28;20046;-79
2024/03/07 03:40:31;;;;;;;40.55;15.93;;;;;;;-141.50;100.00;63355.56;5010767;28;20116;-81
2024/03/07 03:42:58;;;;;;;45.10;17.23;;;;;;;-141.50;100.00;63355.56;5010097;28;20157;-80
2024/03/07 03:45:28;;;;;;;39.17;16.13;;;;;;;-141.50;100.00;63355.56;5013294;28;20124;-81
2024/03/07 03:47:57;;;;;;;39.20;16.10;;;;;;;-141.50;100.00;63355.56;4994679;28;20540;-80
2024/03/07 03:50:28;;;;;;;45.33;16.98;;;;;;;-141.50;100.00;63355.56;4992792;28;20109;-80
2024/03/07 03:52:57;;;;;;;48.63;18.45;;;;;;;-141.50;100.00;63355.56;5006179;28;20495;-82
2024/03/07 03:55:24;;;;;;;39.83;16.95;;;;;;;-141.50;100.00;63355.56;4987016;28;20058;-79
2024/03/07 03:57:50;;;;;;;43.22;16.85;;;;;;;-141.50;100.00;63355.56;5006308;28;20468;-80
2024/03/07 04:00:18;;;;;;;43.38;16.83;;;;;;;-141.50;100.00;63355.56;5009399;28;20054;-79
2024/03/07 04:02:48;;;;;;;49.17;17.95;;;;;;;-141.50;100.00;63355.56;5005678;28;20153;-80
2024/03/07 04:05:18;;;;;;;48.40;17.70;;;;;;;-141.50;100.00;63355.56;5010436;28;20657;-80
2024/03/07 04:07:46;;;;;;;45.05;16.80;;;;;;;-141.50;100.00;63355.56;5010227;28;20149;-79
2024/03/07 04:10:15;;;;;;;46.90;18.38;;;;;;;-141.50;100.00;63355.56;5012638;28;20062;-82
2024/03/07 04:12:42;;;;;;;46.28;18.17;;;;;;;-141.50;100.00;63355.56;5012360;28;20088;-80
2024/03/07 04:15:18;;;;;;;47.17;18.02;;;;;;;-141.50;100.00;63355.56;5010880;28;20594;-82
2024/03/07 04:17:46;;;;;;;49.83;17.70;;;;;;;-141.50;100.00;63355.56;4995642;28;20060;-78
2024/03/07 04:20:16;;;;;;;44.90;16.75;;;;;;;-141.50;100.00;63355.56;5013276;28;20054;-79
2024/03/07 04:22:45;;;;;;;46.58;17.17;;;;;;;-141.50;100.00;63355.56;4991411;28;20050;-79
2024/03/07 04:25:12;;;;;;;48.08;17.50;;;;;;;-141.50;100.00;63355.56;5004479;28;20053;-76
2024/03/07 04:27:39;;;;;;;43.00;16.85;;;;;;;-141.50;100.00;63355.56;4998176;28;20109;-78
2024/03/07 04:30:09;;;;;;;41.45;17.02;;;;;;;-141.50;100.00;63355.56;5013118;28;20046;-79
2024/03/07 04:32:41;;;;;;;41.30;15.52;;;;;;;-141.50;100.00;63355.56;5011685;28;20113;-81
2024/03/07 04:35:10;;;;;;;42.63;16.80;;;;;;;-141.50;100.00;63355.56;4992587;28;20056;-78
2024/03/07 04:37:40;;;;;;;41.58;16.63;;;;;;;-141.50;100.00;63355.56;5012555;28;20061;-79
2024/03/07 04:40:15;;;;;;;42.13;16.85;;;;;;;-141.50;100.00;63355.56;4994684;28;20050;-80
2024/03/07 04:42:43;;;;;;;44.55;17.85;;;;;;;-141.50;100.00;63355.56;5001165;28;20410;-80
2024/03/07 04:45:15;;;;;;;45.08;15.63;;;;;;;-141.50;100.00;63355.56;4991604;28;20578;-81
2024/03/07 04:47:42;;;;;;;43.70;16.70;;;;;;;-141.50;100.00;63355.56;5001553;28;20050;-81
2024/03/07 04:50:12;;;;;;;45.22;16.55;;;;;;;-141.50;100.00;63355.56;5008279;28;20569;-80
2024/03/07 04:52:40;;;;;;;43.60;17.60;;;;;;;-141.50;100.00;63355.56;4993385;28;20058;-80
2024/03/07 04:55:11;;;;;;;43.95;18.05;;;;;;;-141.50;100.00;63355.56;5010927;28;20046;-79
2024/03/07 04:57:39;;;;;;;44.20;17.13;;;;;;;-141.50;100.00;63355.56;5010747;28;20850;-80
2024/03/07 05:00:14;;;;;;;42.50;16.63;;;;;;;-141.50;100.00;63355.56;5011824;28;20077;-81
2024/03/07 05:02:44;;;;;;;40.92;15.52;;;;;;;-141.50;100.00;63355.56;4987299;28;20108;-80
2024/03/07 05:05:13;;;;;;;39.97;15.77;;;;;;;-141.50;100.00;63355.56;4995135;28;20041;-79
2024/03/07 05:07:41;;;;;;;49.33;16.38;;;;;;;-141.50;100.00;63355.56;5001876;28;20487;-80
2024/03/07 05:10:08;;;;;;;43.60;16.65;;;;;;;-141.50;100.00;63355.56;5009175;28;20046;-80
2024/03/07 05:12:36;;;;;;;42.70;16.48;;;;;;;-141.50;100.00;63355.56;5010665;28;20419;-78
2024/03/07 05:15:05;;;;;;;47.78;18.00;;;;;;;-141.50;100.00;63355.56;4990557;28;20137;-79
2024/03/07 05:17:34;;;;;;;45.75;18.42;;;;;;;-141.50;100.00;63355.56;4991505;28;20056;-79
2024/03/07 05:20:03;;;;;;;44.05;17.50;;;;;;;-141.50;100.00;63355.56;5008162;28;20076;-76
2024/03/07 05:22:30;;;;;;;49.90;19.58;;;;;;;-141.50;100.00;63355.56;4995343;28;20049;-79
2024/03/07 05:24:58;;;;;;;46.63;18.42;;;;;;;-141.50;100.00;63355.56;5013470;28;20058;-80
2024/03/07 05:27:27;;;;;;;49.00;18.33;;;;;;;-141.50;100.00;63355.56;4977211;28;20091;-80
2024/03/07 05:29:55;;;;;;;47.25;19.92;;;;;;;-141.50;100.00;63355.56;5009315;28;20053;-79
2024/03/07 05:32:24;;;;;;;49.97;18.83;;;;;;;-141.50;100.00;63355.56;4988861;28;20488;-80
2024/03/07 05:34:53;;;;;;;49.70;19.60;;;;;;;-141.50;100.00;63355.56;5002977;28;20065;-80
2024/03/07 05:37:22;;;;;;;52.30;20.23;;;;;;;-141.50;100.00;63355.56;5008842;28;20053;-78
2024/03/07 05:39:52;;;;;;;48.92;19.75;;;;;;;-141.50;100.00;63355.56;4972032;28;20049;-79
2024/03/07 05:42:19;;;;;;;49.55;19.45;;;;;;;-141.50;100.00;63355.56;5011121;28;20062;-78
2024/03/07 05:44:46;;;;;;;57.05;21.27;;;;;;;-141.50;100.00;63355.56;5008973;28;20073;-78
2024/03/07 05:47:14;;;;;;;56.20;20.83;;;;;;;-141.50;100.00;63355.56;4991031;28;20074;-78
2024/03/07 05:49:41;;;;;;;65.55;23.27;;;;;;;-141.50;100.00;63355.56;4991687;28;20060;-79
2024/03/07 05:52:08;;;;;;;54.15;21.63;;;;;;;-141.50;100.00;63355.56;5008253;28;20046;-78
2024/03/07 05:54:35;;;;;;;62.38;23.60;;;;;;;-141.50;100.00;63355.56;5008966;28;20054;-78
2024/03/07 05:57:02;;;;;;;65.28;23.40;;;;;;;-141.50;100.00;63355.56;4990714;28;20052;-80
2024/03/07 05:59:31;;;;;;;67.40;25.05;;;;;;;-141.50;100.00;63355.56;5008214;28;20121;-79
2024/03/07 06:01:58;;;;;;;63.53;23.75;;;;;;;-141.50;100.00;63355.56;4993339;28;20138;-80
2024/03/07 06:04:25;;;;;;;63.30;23.48;;;;;;;-141.50;100.00;63355.56;5010117;28;20056;-78
2024/03/07 06:06:52;;;;;;;59.97;23.15;;;;;;;-141.50;100.00;63355.56;4980025;28;20077;-80
2024/03/07 06:09:21;;;;;;;65.88;23.85;;;;;;;-141.50;100.00;63355.56;5008995;28;20050;-77
2024/03/07 06:11:49;;;;;;;57.72;22.23;;;;;;;-141.50;100.00;63355.56;5006557;28;20514;-79
2024/03/07 06:14:17;;;;;;;60.83;23.98;;;;;;;-141.50;100.00;63355.56;4986265;28;20078;-78
2024/03/07 06:16:44;;;;;;;61.20;22.95;;;;;;;-141.50;100.00;63355.56;4993228;28;20128;-80
2024/03/07 06:19:11;;;;;;;62.25;24.60;;;;;;;-141.50;100.00;63355.56;5010449;28;20054;-80
2024/03/07 06:21:41;;;;;;;56.58;23.85;;;;;;;-141.50;100.00;63355.56;5005856;28;20057;-77
2024/03/07 06:24:10;;;;;;;61.88;23.25;;;;;;;-141.50;100.00;63355.56;5012333;28;20523;-78
2024/03/07 06:29:13;;;;;;;51.17;21.38;;;;;;;-141.50;100.00;63355.56;4993280;28;20051;-80
2024/03/07 06:31:41;;;;;;;57.55;21.27;;;;;;;-141.50;100.00;63355.56;5018600;28;20050;-79
2024/03/07 06:34:11;;;;;;;55.95;22.95;;;;;;;-141.50;100.00;63355.56;5002759;28;20061;-81
2024/03/07 06:36:37;;;;;;;65.65;22.67;;;;;;;-141.50;100.00;63355.56;4995434;28;20836;-81
2024/03/07 06:39:07;;;;;;;59.42;22.58;;;;;;;-141.50;100.00;63355.56;5011095;28;20050;-78
2024/03/07 06:41:34;;;;;;;60.70;21.63;;;;;;;-141.50;100.00;63355.56;5013365;28;20054;-81
2024/03/07 06:44:01;;;;;;;55.00;21.90;;;;;;;-141.50;100.00;63355.56;5010838;28;20101;-81
2024/03/07 06:46:28;;;;;;;59.45;22.63;;;;;;;-141.50;100.00;63355.56;5010947;28;20092;-78
2024/03/07 06:48:58;;;;;;;53.72;21.95;;;;;;;-141.50;100.00;63355.56;5007913;28;20054;-80
2024/03/07 06:51:25;;;;;;;54.72;22.00;;;;;;;-141.50;100.00;63355.56;4984060;28;20058;-79
2024/03/07 06:53:52;;;;;;;49.17;21.17;;;;;;;-141.50;100.00;63355.56;5009873;28;20070;-80
2024/03/07 06:56:19;;;;;;;55.90;21.70;;;;;;;-141.50;100.00;63355.56;5001108;28;20044;-80
2024/03/07 06:58:46;;;;;;;59.00;21.67;;;;;;;-141.50;100.00;63355.56;5009371;28;20056;-80
2024/03/07 07:01:15;;;;;;;52.08;20.70;;;;;;;-141.50;100.00;63355.56;5009558;28;20042;-81
2024/03/07 07:03:43;;;;;;;53.75;21.27;;;;;;;-141.50;100.00;63355.56;5003111;28;20054;-81
2024/03/07 07:06:10;;;;;;;53.53;20.60;;;;;;;-141.50;100.00;63355.56;5010962;28;20545;-80
2024/03/07 07:08:37;;;;;;;50.45;21.85;;;;;;;-141.50;100.00;63355.56;5009554;28;20141;-81
2024/03/07 07:11:06;;;;;;;52.17;20.77;;;;;;;-141.50;100.00;63355.56;5009121;28;20045;-80
2024/03/07 07:13:33;;;;;;;51.08;20.83;;;;;;;-141.50;100.00;63355.56;5009659;28;20156;-80
2024/03/07 07:16:00;;;;;;;50.92;20.13;;;;;;;-141.50;100.00;63355.56;4991773;28;20058;-81
2024/03/07 07:18:27;;;;;;;45.00;20.23;;;;;;;-141.50;100.00;63355.56;5011326;28;20081;-78
2024/03/07 07:20:54;;;;;;;47.50;18.77;;;;;;;-141.50;100.00;63355.56;5001924;28;20419;-79
2024/03/07 07:23:21;;;;;;;43.20;18.23;;;;;;;-141.50;100.00;63355.56;4990657;28;20089;-80
2024/03/07 07:25:48;;;;;;;44.35;18.17;;;;;;;-141.50;100.00;63355.56;5007768;28;20102;-80
2024/03/07 07:28:15;;;;;;;37.92;17.33;;;;;;;-141.50;100.00;63355.56;5012391;28;20504;-81
2024/03/07 07:30:42;;;;;;;43.75;18.77;;;;;;;-141.50;100.00;63355.56;4994619;28;20042;-80
2024/03/07 07:33:12;;;;;;;45.30;18.58;;;;;;;-141.50;100.00;63355.56;5012712;28;20416;-81
2024/03/07 07:35:40;;;;;;;50.85;18.17;;;;;;;-141.50;100.00;63355.56;5012460;28;20062;-79
2024/03/07 07:38:10;;;;;;;49.55;18.33;;;;;;;-141.50;100.00;63355.56;5010763;28;20046;-78
2024/03/07 07:40:37;;;;;;;40.20;17.30;;;;;;;-141.50;100.00;63355.56;5012961;28;20058;-80
2024/03/07 07:43:04;;;;;;;44.80;17.83;;;;;;;-141.50;100.00;63355.56;5012378;28;20121;-78
2024/03/07 07:45:32;;;;;;;43.08;17.38;;;;;;;-141.50;100.00;63355.56;5012425;28;20049;-79
2024/03/07 07:47:59;;;;;;;42.05;16.88;;;;;;;-141.50;100.00;63355.56;5012897;28;20053;-79
2024/03/07 07:50:27;;;;;;;33.40;15.73;;;;;;;-141.50;100.00;63355.56;4994218;28;20069;-80
2024/03/07 07:52:56;;;;;;;36.80;16.50;;;;;;;-141.50;100.00;63355.56;4994847;28;20045;-81
2024/03/07 07:55:25;;;;;;;42.60;16.90;;;;;;;-141.50;100.00;63355.56;5012303;28;20053;-80
2024/03/07 07:57:52;;;;;;;43.47;16.60;;;;;;;-141.50;100.00;63355.56;4994396;28;20058;-78
2024/03/07 08:00:25;;;;;;;35.03;16.13;;;;;;;-141.50;100.00;63355.56;5012519;28;20042;-80
2024/03/07 08:03:01;;;;;;;35.30;15.43;;;;;;;-141.50;100.00;63355.56;5011507;28;20061;-80
2024/03/07 08:05:33;;;;;;;32.92;14.38;;;;;;;-141.50;100.00;63355.56;5003552;28;20231;-80
2024/03/07 08:08:06;;;;;;;39.00;15.80;;;;;;;-141.50;100.00;63355.56;5011293;28;20042;-80
2024/03/07 08:10:35;;;;;;;36.35;15.52;;;;;;;-141.50;100.00;63355.56;5011504;28;20057;-78
2024/03/07 08:13:03;;;;;;;40.63;16.17;;;;;;;-141.50;100.00;63355.56;4985974;28;20050;-79
2024/03/07 08:15:30;;;;;;;37.25;16.23;;;;;;;-141.50;100.00;63355.56;5010984;28;20459;-80
2024/03/07 08:17:59;;;;;;;37.83;16.17;;;;;;;-141.50;100.00;63355.56;5002547;28;20112;-78
2024/03/07 08:20:27;;;;;;;38.00;16.60;;;;;;;-141.50;100.00;63355.56;4993927;28;20117;-78
2024/03/07 08:22:55;;;;;;;36.97;15.63;;;;;;;-141.50;100.00;63355.56;4981412;28;20054;-78
2024/03/07 08:25:24;;;;;;;35.97;15.63;;;;;;;-141.50;100.00;63355.56;5009831;28;20045;-77
2024/03/07 08:27:54;;;;;;;44.78;16.40;;;;;;;-141.50;100.00;63355.56;4992753;28;20062;-78
2024/03/07 08:30:22;;;;;;;39.10;15.90;;;;;;;-141.50;100.00;63355.56;4994085;28;20126;-79
2024/03/07 08:32:54;;;;;;;46.50;17.20;;;;;;;-141.50;100.00;63355.56;4993641;28;20068;-78
2024/03/07 08:35:22;;;;;;;40.40;16.35;;;;;;;-141.50;100.00;63355.56;5010810;28;20081;-80
2024/03/07 08:37:55;;;;;;;38.58;16.35;;;;;;;-141.50;100.00;63355.56;4993277;28;20614;-79
2024/03/07 08:40:25;;;;;;;39.55;18.05;;;;;;;-141.50;100.00;63355.56;4981572;28;20105;-80
2024/03/07 08:42:55;;;;;;;49.95;18.02;;;;;;;-141.50;100.00;63355.56;5007981;28;20060;-78
2024/03/07 08:45:25;;;;;;;38.63;17.55;;;;;;;-141.50;100.00;63355.56;5010750;28;20058;-80
2024/03/07 08:47:56;;;;;;;40.35;17.08;;;;;;;-141.50;100.00;63355.56;5011230;28;20252;-79
2024/03/07 08:50:26;;;;;;;44.35;17.50;;;;;;;-141.50;100.00;63355.56;4993004;28;20490;-79
2024/03/07 08:52:54;;;;;;;40.92;17.50;;;;;;;-141.50;100.00;63355.56;5010925;28;20076;-81
2024/03/07 08:55:23;;;;;;;44.53;18.52;;;;;;;-141.50;100.00;63355.56;5010911;28;20053;-78
2024/03/07 08:57:51;;;;;;;41.42;16.80;;;;;;;-141.50;100.00;63355.56;4994248;28;20057;-79
2024/03/07 09:00:22;;;;;;;40.08;16.35;;;;;;;-141.50;100.00;63355.56;4993876;28;20046;-78
2024/03/07 09:02:59;;;;;;;40.97;17.30;;;;;;;-141.50;100.00;63355.56;4993386;28;20419;-80
2024/03/07 09:05:33;;;;;;;37.63;15.75;;;;;;;-141.50;100.00;63355.56;5011292;28;20314;-79
2024/03/07 09:08:00;;;;;;;38.72;15.85;;;;;;;-141.50;100.00;63355.56;5010124;28;20052;-76
2024/03/07 09:10:29;;;;;;;36.35;13.80;;;;;;;-141.50;100.00;63355.56;5010483;28;20053;-79
2024/03/07 09:12:57;;;;;;;38.55;13.55;;;;;;;-141.50;100.00;63355.56;4993956;28;20060;-77
2024/03/07 09:15:24;;;;;;;35.08;14.05;;;;;;;-141.50;100.00;63355.56;5014863;28;20050;-78
2024/03/07 09:17:52;;;;;;;37.45;14.52;;;;;;;-141.50;100.00;63355.56;5012853;28;20053;-78
2024/03/07 09:20:20;;;;;;;32.80;14.27;;;;;;;-141.50;100.00;63355.56;4991438;28;20053;-76
2024/03/07 09:22:48;;;;;;;30.13;12.77;;;;;;;-141.50;100.00;63355.56;5000161;28;20058;-79
2024/03/07 09:25:18;;;;;;;26.63;12.23;;;;;;;-141.50;100.00;63355.56;5010346;28;20140;-78
2024/03/07 09:27:45;;;;;;;28.23;11.07;;;;;;;-141.50;100.00;63355.56;4985410;28;20418;-77
2024/03/07 09:30:14;;;;;;;26.27;9.35;;;;;;;-141.50;100.00;63355.56;5010342;28;20046;-78
2024/03/07 09:32:42;;;;;;;20.30;8.75;;;;;;;-141.50;100.00;63355.56;5010203;28;20057;-77
2024/03/07 09:35:13;;;;;;;23.23;8.98;;;;;;;-141.50;100.00;63355.56;4991877;28;20045;-76
2024/03/07 09:37:41;;;;;;;23.98;9.43;;;;;;;-141.50;100.00;63355.56;5011184;28;20054;-78
2024/03/07 09:40:11;;;;;;;21.48;9.27;;;;;;;-141.50;100.00;63355.56;5010197;28;20042;-78
2024/03/07 09:42:44;;;;;;;27.88;9.98;;;;;;;-141.50;100.00;63355.56;5009180;28;20065;-78
2024/03/07 09:45:19;;;;;;;25.13;10.32;;;;;;;-141.50;100.00;63355.56;4991814;28;20042;-78
2024/03/07 09:47:51;;;;;;;26.25;9.90;;;;;;;-141.50;100.00;63355.56;5002434;28;20085;-79
2024/03/07 09:50:23;;;;;;;23.80;11.15;;;;;;;-141.50;100.00;63355.56;4976418;28;20054;-78
2024/03/07 09:52:52;;;;;;;24.13;10.30;;;;;;;-141.50;100.00;63355.56;5010062;28;20504;-79
2024/03/07 09:55:23;;;;;;;23.73;10.55;;;;;;;-141.50;100.00;63355.56;4997403;28;20733;-76
2024/03/07 09:57:55;;;;;;;24.00;10.52;;;;;;;-141.50;100.00;63355.56;5023726;28;20802;-78
2024/03/07 10:00:25;;;;;;;32.25;11.35;;;;;;;-141.50;100.00;63355.56;4995332;28;20142;-77
2024/03/07 10:02:55;;;;;;;27.15;10.85;;;;;;;-141.50;100.00;63355.56;5005538;28;20053;-79
2024/03/07 10:05:26;;;;;;;24.88;10.63;;;;;;;-141.50;100.00;63355.56;5009553;28;20049;-79
2024/03/07 10:07:53;;;;;;;29.17;11.18;;;;;;;-141.50;100.00;63355.56;4990937;28;20080;-77
2024/03/07 10:10:21;;;;;;;22.58;9.70;;;;;;;-141.50;100.00;63355.56;5009587;28;20056;-77
2024/03/07 10:12:50;;;;;;;26.88;10.90;;;;;;;-141.50;100.00;63355.56;4999606;28;20037;-79
2024/03/07 10:15:19;;;;;;;26.98;10.90;;;;;;;-141.50;100.00;63355.56;5018706;28;20053;-78
2024/03/07 10:17:46;;;;;;;25.23;10.82;;;;;;;-141.50;100.00;63355.56;5002690;28;20045;-77
2024/03/07 10:20:18;;;;;;;28.25;10.25;;;;;;;-141.50;100.00;63355.56;5010196;28;20627;-78
2024/03/07 10:22:45;;;;;;;24.75;9.68;;;;;;;-141.50;100.00;63355.56;5008889;28;20046;-78
2024/03/07 10:25:11;;;;;;;24.67;9.88;;;;;;;-141.50;100.00;63355.56;5010053;28;20052;-77
2024/03/07 10:27:38;;;;;;;22.80;9.65;;;;;;;-141.50;100.00;63355.56;5009353;28;20508;-77
2024/03/07 10:30:08;;;;;;;22.73;8.98;;;;;;;-141.50;100.00;63355.56;5010215;28;20084;-79
2024/03/07 10:32:35;;;;;;;23.73;10.05;;;;;;;-141.50;100.00;63355.56;4991694;28;20050;-79
2024/03/07 10:35:03;;;;;;;23.65;9.48;;;;;;;-141.50;100.00;63355.56;4998909;28;20611;-78
2024/03/07 10:37:30;;;;;;;30.13;9.75;;;;;;;-141.50;100.00;63355.56;4992050;28;20049;-78
2024/03/07 10:39:57;;;;;;;22.90;9.40;;;;;;;-141.50;100.00;63355.56;5009023;28;20547;-77
2024/03/07 10:42:30;;;;;;;23.92;9.90;;;;;;;-141.50;100.00;63355.56;5015240;28;20054;-79
2024/03/07 10:45:04;;;;;;;24.85;9.80;;;;;;;-141.50;100.00;63355.56;5015380;28;20054;-81
2024/03/07 10:47:36;;;;;;;24.58;9.10;;;;;;;-141.50;100.00;63355.56;5009445;28;20080;-78
2024/03/07 10:50:15;;;;;;;22.05;8.48;;;;;;;-141.50;100.00;63355.56;5009380;28;20045;-79
2024/03/07 10:53:00;;;;;;;19.13;9.10;;;;;;;-141.50;100.00;63355.56;5007493;28;20053;-78
2024/03/07 10:55:32;;;;;;;19.13;8.27;;;;;;;-141.50;100.00;63355.56;5009803;28;20049;-78
2024/03/07 10:58:12;;;;;;;21.60;8.45;;;;;;;-141.50;100.00;63355.56;5010061;28;20061;-78
2024/03/07 11:00:45;;;;;;;21.58;8.60;;;;;;;-141.50;100.00;63355.56;5009887;28;20045;-80
2024/03/07 11:03:14;;;;;;;20.75;8.38;;;;;;;-141.50;100.00;63355.56;5007803;28;20146;-77